createdAt,value
2023-03-12T00:04:27.200Z,-0.40
2023-03-12T00:09:28.926Z,-0.55
2023-03-12T00:14:30.399Z,-0.42
2023-03-12T00:19:31.866Z,-0.44
2023-03-12T00:24:33.301Z,-0.51
2023-03-12T00:29:35.814Z,-0.44
2023-03-12T00:34:37.183Z,-0.23
2023-03-12T00:39:38.608Z,-0.47
2023-03-12T00:44:40.206Z,-0.44
2023-03-12T00:49:41.793Z,-0.49
2023-03-12T00:54:43.237Z,-0.42
2023-03-12T00:59:44.782Z,-0.50
2023-03-12T01:04:46.226Z,-0.53
2023-03-12T01:09:47.675Z,-0.50
2023-03-12T01:14:49.118Z,-0.59
2023-03-12T01:19:50.582Z,-0.48
2023-03-12T01:24:52.037Z,-0.53
2023-03-12T01:29:53.590Z,-0.55
2023-03-12T01:34:55.385Z,-0.59
2023-03-12T01:39:56.843Z,-0.54
2023-03-12T01:45:01.218Z,-0.59
2023-03-12T01:50:05.736Z,-0.64
2023-03-12T01:55:09.942Z,-0.58
2023-03-12T02:00:24.020Z,-0.50
2023-03-12T02:05:43.682Z,-0.52
2023-03-12T02:10:46.272Z,-0.56
2023-03-12T02:15:48.546Z,-0.50
2023-03-12T02:20:56.665Z,-0.60
2023-03-12T02:25:59.910Z,-0.55
2023-03-12T02:31:03.576Z,-0.65
2023-03-12T02:36:06.320Z,-0.66
2023-03-12T02:41:28.790Z,-0.72
2023-03-12T02:46:36.099Z,-0.69
2023-03-12T02:51:38.364Z,-0.72
2023-03-12T03:02:07.212Z,-0.78
2023-03-12T03:07:15.569Z,-0.75
2023-03-12T03:12:17.537Z,-0.82
2023-03-12T03:17:19.244Z,-0.67
2023-03-12T03:22:21.616Z,-0.83
2023-03-12T03:27:23.192Z,-0.82
2023-03-12T03:32:25.394Z,-0.90
2023-03-12T03:37:26.965Z,-0.81
2023-03-12T03:42:28.539Z,-0.97
2023-03-12T03:47:30.158Z,-1.01
2023-03-12T03:52:32.292Z,-1.09
2023-03-12T03:57:34.121Z,-1.10
2023-03-12T04:02:35.841Z,-1.12
2023-03-12T04:07:37.518Z,-1.02
2023-03-12T04:12:39.205Z,-1.08
2023-03-12T04:17:40.787Z,-1.05
2023-03-12T04:22:43.577Z,-1.05
2023-03-12T04:27:45.760Z,-1.06
2023-03-12T04:32:47.342Z,-1.05
2023-03-12T04:37:49.444Z,-1.04
2023-03-12T04:42:51.512Z,-1.01
2023-03-12T04:47:54.424Z,-1.00
2023-03-12T04:52:56.211Z,-1.08
2023-03-12T04:57:57.834Z,-1.06
2023-03-12T05:02:59.889Z,-1.07
2023-03-12T05:08:03.102Z,-1.13
2023-03-12T05:13:11.849Z,-1.08
2023-03-12T05:18:13.711Z,-1.16
2023-03-12T05:23:15.291Z,-1.19
2023-03-12T05:28:17.066Z,-1.14
2023-03-12T05:33:18.603Z,-1.11
2023-03-12T05:38:20.251Z,-1.15
2023-03-12T05:43:22.896Z,-1.13
2023-03-12T05:48:25.253Z,-1.11
2023-03-12T05:53:26.852Z,-1.08
2023-03-12T05:58:28.911Z,-1.11
2023-03-12T06:03:30.779Z,-1.06
2023-03-12T06:08:33.099Z,-1.04
2023-03-12T06:13:34.871Z,-0.99
2023-03-12T06:18:37.731Z,-1.00
2023-03-12T06:23:40.376Z,-0.92
2023-03-12T06:28:48.794Z,-0.82
2023-03-12T06:33:50.880Z,-0.75
2023-03-12T06:38:52.362Z,-0.70
2023-03-12T06:43:53.826Z,-0.59
2023-03-12T06:48:55.284Z,-0.50
2023-03-12T06:53:56.729Z,-0.43
2023-03-12T06:58:58.242Z,-0.29
2023-03-12T07:03:59.693Z,-0.23
2023-03-12T07:09:03.473Z,-0.09
2023-03-12T07:14:04.915Z,0.09
2023-03-12T07:19:06.491Z,0.19
2023-03-12T07:24:08.860Z,0.30
2023-03-12T07:29:10.342Z,0.46
2023-03-12T07:34:11.971Z,0.69
2023-03-12T07:39:13.568Z,0.83
2023-03-12T07:44:15.192Z,0.97
2023-03-12T07:49:16.636Z,1.03
2023-03-12T07:54:18.092Z,1.18
2023-03-12T07:59:19.655Z,1.22
2023-03-12T08:04:21.591Z,1.29
2023-03-12T08:09:23.138Z,1.34
2023-03-12T08:14:24.635Z,1.41
2023-03-12T08:19:27.095Z,1.60
2023-03-12T08:24:28.642Z,1.86
2023-03-12T08:29:30.158Z,2.01
2023-03-12T08:34:31.738Z,2.23
2023-03-12T08:39:35.779Z,2.31
2023-03-12T08:44:37.284Z,2.35
2023-03-12T08:49:38.764Z,2.44
2023-03-12T08:54:51.494Z,2.61
2023-03-12T08:59:52.939Z,2.63
2023-03-12T09:04:57.166Z,2.65
2023-03-12T09:09:58.711Z,2.74
2023-03-12T09:15:04.737Z,3.14
2023-03-12T09:20:08.814Z,3.25
2023-03-12T09:25:14.272Z,3.25
2023-03-12T09:30:20.932Z,3.34
2023-03-12T09:35:22.465Z,3.76
2023-03-12T09:40:29.037Z,3.98
2023-03-12T09:45:36.355Z,4.02
2023-03-12T09:50:43.659Z,4.04
2023-03-12T09:55:49.165Z,4.14
2023-03-12T10:00:55.142Z,4.12
2023-03-12T10:06:09.805Z,4.34
2023-03-12T10:11:25.232Z,4.44
2023-03-12T10:16:53.599Z,4.52
2023-03-12T10:22:14.430Z,4.40
2023-03-12T10:27:18.604Z,4.71
2023-03-12T10:32:28.827Z,4.89
2023-03-12T10:37:52.846Z,5.10
2023-03-12T10:42:54.940Z,5.02
2023-03-12T10:47:59.732Z,5.06
2023-03-12T10:53:22.568Z,5.20
2023-03-12T10:58:25.508Z,5.20
2023-03-12T11:03:27.568Z,5.24
2023-03-12T11:08:31.926Z,5.31
2023-03-12T11:13:40.657Z,5.38
2023-03-12T11:18:59.939Z,5.23
2023-03-12T11:24:07.518Z,5.61
2023-03-12T11:29:17.013Z,5.79
2023-03-12T11:34:24.604Z,5.94
2023-03-12T11:39:40.381Z,5.87
2023-03-12T11:44:51.005Z,6.42
2023-03-12T11:50:27.328Z,6.23
2023-03-12T11:56:13.748Z,6.60
2023-03-12T12:01:36.044Z,7.02
2023-03-12T12:06:55.740Z,6.89
2023-03-12T12:12:32.816Z,7.53
2023-03-12T12:18:11.154Z,7.24
2023-03-12T12:23:30.019Z,7.25
2023-03-12T12:29:12.180Z,7.28
2023-03-12T12:34:44.478Z,7.23
2023-03-12T12:39:50.052Z,7.30
2023-03-12T12:44:53.861Z,7.07
2023-03-12T12:49:58.981Z,6.88
2023-03-12T12:55:50.483Z,6.84
2023-03-12T13:01:00.472Z,6.82
2023-03-12T13:06:04.568Z,7.43
2023-03-12T13:11:23.747Z,7.12
2023-03-12T13:16:33.221Z,7.23
2023-03-12T13:21:48.274Z,7.58
2023-03-12T13:27:19.486Z,7.25
2023-03-12T13:32:36.921Z,6.88
2023-03-12T13:37:53.720Z,6.77
2023-03-12T13:43:16.872Z,6.94
2023-03-12T13:48:20.875Z,6.79
2023-03-12T13:53:40.475Z,6.66
2023-03-12T14:05:56.174Z,6.54
2023-03-12T14:11:50.636Z,6.79
2023-03-12T14:36:58.086Z,6.52
2023-03-12T14:42:07.949Z,6.20
2023-03-12T14:47:20.789Z,5.92
2023-03-12T14:52:26.232Z,6.00
2023-03-12T14:57:27.955Z,5.71
2023-03-12T15:02:31.433Z,6.39
2023-03-12T15:07:37.354Z,5.51
2023-03-12T15:12:38.901Z,5.62
2023-03-12T15:17:40.442Z,6.05
2023-03-12T15:22:42.275Z,5.78
2023-03-12T15:27:43.732Z,6.37
2023-03-12T15:33:13.173Z,6.20
2023-03-12T15:38:16.917Z,5.79
2023-03-12T15:43:21.546Z,6.61
2023-03-12T15:48:36.276Z,5.82
2023-03-12T15:53:37.737Z,5.89
2023-03-12T15:58:41.712Z,5.98
2023-03-12T16:03:45.562Z,5.92
2023-03-12T16:08:51.477Z,6.07
2023-03-12T16:14:01.660Z,5.48
2023-03-12T16:19:03.894Z,5.87
2023-03-12T16:24:05.503Z,5.36
2023-03-12T16:29:06.980Z,6.23
2023-03-12T16:34:11.277Z,5.69
2023-03-12T16:40:23.976Z,5.71
2023-03-12T16:45:37.258Z,5.92
2023-03-12T16:50:39.012Z,5.63
2023-03-12T16:55:47.186Z,5.89
2023-03-12T17:00:49.467Z,5.54
2023-03-12T17:05:51.033Z,5.27
2023-03-12T17:11:26.989Z,5.26
2023-03-12T17:16:29.249Z,5.14
2023-03-12T17:21:30.948Z,5.33
2023-03-12T17:26:32.697Z,5.14
2023-03-12T17:31:37.674Z,5.16
2023-03-12T17:36:40.371Z,5.34
2023-03-12T17:41:42.606Z,5.35
2023-03-12T17:46:56.521Z,5.30
2023-03-12T17:52:03.162Z,5.41
2023-03-12T17:57:04.740Z,5.60
2023-03-12T18:02:07.070Z,5.64
2023-03-12T18:07:11.580Z,5.73
2023-03-12T18:12:13.221Z,5.73
2023-03-12T18:17:22.734Z,5.70
2023-03-12T18:22:24.559Z,5.76
2023-03-12T18:27:26.144Z,5.82
2023-03-12T18:32:30.688Z,5.84
2023-03-12T18:37:37.665Z,6.01
2023-03-12T18:42:44.280Z,6.00
2023-03-12T18:47:50.210Z,6.06
2023-03-12T18:52:51.843Z,6.09
2023-03-12T18:57:53.361Z,6.13
2023-03-12T19:02:55.106Z,6.13
2023-03-12T19:08:26.763Z,6.15
2023-03-12T19:13:28.343Z,6.25
2023-03-12T19:18:30.298Z,6.30
2023-03-12T19:23:39.314Z,6.30
2023-03-12T19:28:42.034Z,6.30
2023-03-12T19:33:44.987Z,6.35
2023-03-12T19:38:54.238Z,6.50
2023-03-12T19:43:55.887Z,6.47
2023-03-12T19:49:00.332Z,6.49
2023-03-12T19:54:01.800Z,6.50
2023-03-12T19:59:03.276Z,6.58
2023-03-12T20:04:07.885Z,6.50
2023-03-12T20:09:09.343Z,6.55
2023-03-12T20:14:10.819Z,6.53
2023-03-12T20:19:12.268Z,6.52
2023-03-12T20:24:13.945Z,6.54
2023-03-12T20:29:15.521Z,6.49
2023-03-12T20:34:17.007Z,6.51
2023-03-12T20:39:18.468Z,6.50
2023-03-12T20:44:19.913Z,6.56
2023-03-12T20:49:21.368Z,6.69
2023-03-12T20:54:22.961Z,6.66
2023-03-12T20:59:24.438Z,6.63
2023-03-12T21:04:25.904Z,6.78
2023-03-12T21:09:27.351Z,6.79
2023-03-12T21:14:28.975Z,6.89
2023-03-12T21:19:30.930Z,6.96
2023-03-12T21:24:36.002Z,6.95
2023-03-12T21:29:39.774Z,7.03
2023-03-12T21:34:41.312Z,7.10
2023-03-12T21:40:01.227Z,7.06
2023-03-12T21:45:05.774Z,7.16
2023-03-12T21:50:08.614Z,7.12
2023-03-12T21:55:10.756Z,7.38
2023-03-12T22:00:15.740Z,7.15
2023-03-12T22:05:17.517Z,7.20
2023-03-12T22:10:19.064Z,7.25
2023-03-12T22:15:26.765Z,7.18
2023-03-12T22:20:35.169Z,7.21
2023-03-12T22:25:38.866Z,7.27
2023-03-12T22:30:40.571Z,7.42
2023-03-12T22:35:46.125Z,7.39
2023-03-12T22:40:48.093Z,7.40
2023-03-12T22:45:53.797Z,7.49
2023-03-12T22:50:55.366Z,7.34
2023-03-12T22:56:03.028Z,7.31
2023-03-12T23:01:10.903Z,7.34
2023-03-12T23:06:15.322Z,7.29
2023-03-12T23:11:17.848Z,7.24
2023-03-12T23:16:22.540Z,7.12
2023-03-12T23:21:24.908Z,7.15
2023-03-12T23:26:28.521Z,7.13
2023-03-12T23:31:30.103Z,7.23
2023-03-12T23:36:31.600Z,7.07
2023-03-12T23:41:33.079Z,7.30
2023-03-12T23:46:34.653Z,7.20
2023-03-12T23:51:38.870Z,7.44
2023-03-12T23:56:41.168Z,7.38
